createdAt,value
2019-02-16T00:00:44.760Z,69.50
2019-02-16T00:02:48.466Z,69.20
2019-02-16T00:04:52.153Z,69.00
2019-02-16T00:06:55.860Z,68.80
2019-02-16T00:08:59.534Z,69.20
2019-02-16T00:11:03.225Z,68.90
2019-02-16T00:13:06.900Z,68.50
2019-02-16T00:15:10.570Z,68.40
2019-02-16T00:17:14.354Z,68.30
2019-02-16T00:19:18.114Z,68.00
2019-02-16T00:21:21.834Z,68.10
2019-02-16T00:23:25.514Z,68.00
2019-02-16T00:25:29.207Z,68.30
2019-02-16T00:27:32.851Z,68.00
2019-02-16T00:29:36.542Z,68.40
2019-02-16T00:31:40.278Z,68.30
2019-02-16T00:33:44.035Z,68.20
2019-02-16T00:35:48.150Z,68.80
2019-02-16T00:37:51.891Z,69.50
2019-02-16T00:39:55.551Z,70.10
2019-02-16T00:41:59.244Z,69.80
2019-02-16T00:44:02.914Z,69.70
2019-02-16T00:46:06.681Z,69.20
2019-02-16T00:48:10.362Z,68.60
2019-02-16T00:50:14.036Z,68.60
2019-02-16T00:52:17.841Z,69.00
2019-02-16T00:54:21.510Z,69.00
2019-02-16T00:56:25.207Z,69.00
2019-02-16T00:58:28.868Z,68.40
2019-02-16T01:00:32.538Z,67.80
2019-02-16T01:02:36.226Z,68.00
2019-02-16T01:04:39.893Z,68.20
2019-02-16T01:06:43.565Z,68.90
2019-02-16T01:08:47.252Z,69.20
2019-02-16T01:10:50.925Z,69.20
2019-02-16T01:12:54.656Z,69.40
2019-02-16T01:14:58.327Z,69.70
2019-02-16T01:17:02.062Z,69.20
2019-02-16T01:19:05.821Z,69.10
2019-02-16T01:21:09.490Z,68.90
2019-02-16T01:23:13.174Z,68.30
2019-02-16T01:25:16.828Z,68.50
2019-02-16T01:27:20.863Z,68.70
2019-02-16T01:29:24.548Z,68.80
2019-02-16T01:31:28.229Z,69.10
2019-02-16T01:33:31.894Z,68.30
2019-02-16T01:35:35.574Z,68.50
2019-02-16T01:37:39.262Z,69.50
2019-02-16T01:39:42.923Z,68.60
2019-02-16T01:41:47.561Z,67.90
2019-02-16T01:43:51.867Z,67.90
2019-02-16T01:45:55.650Z,67.90
2019-02-16T01:47:59.319Z,67.60
2019-02-16T01:50:03.035Z,67.50
2019-02-16T01:52:06.709Z,67.00
2019-02-16T01:54:10.396Z,67.40
2019-02-16T01:56:14.054Z,67.60
2019-02-16T01:58:17.762Z,67.90
2019-02-16T02:00:21.460Z,67.70
2019-02-16T02:02:25.132Z,67.70
2019-02-16T02:04:28.975Z,67.50
2019-02-16T02:06:32.652Z,67.90
2019-02-16T02:08:36.344Z,68.00
2019-02-16T02:10:40.033Z,67.70
2019-02-16T02:12:43.688Z,67.50
2019-02-16T02:14:47.398Z,67.30
2019-02-16T02:16:51.061Z,67.40
2019-02-16T02:18:54.774Z,67.20
2019-02-16T02:20:58.468Z,67.30
2019-02-16T02:23:02.204Z,67.00
2019-02-16T02:25:08.703Z,67.10
2019-02-16T02:27:12.386Z,67.20
2019-02-16T02:29:16.080Z,67.30
2019-02-16T02:31:19.750Z,67.70
2019-02-16T02:33:23.418Z,67.40
2019-02-16T02:35:27.103Z,67.80
2019-02-16T02:37:30.769Z,67.50
2019-02-16T02:39:34.447Z,68.10
2019-02-16T02:41:38.134Z,68.30
2019-02-16T02:43:41.802Z,67.90
2019-02-16T02:45:45.487Z,67.40
2019-02-16T02:47:49.944Z,68.00
2019-02-16T02:49:53.634Z,68.30
2019-02-16T02:51:57.330Z,68.10
2019-02-16T02:54:01.035Z,68.50
2019-02-16T02:56:04.826Z,68.60
2019-02-16T02:58:08.573Z,68.00
2019-02-16T03:00:12.292Z,68.20
2019-02-16T03:02:16.050Z,67.40
2019-02-16T03:04:19.722Z,66.90
2019-02-16T03:06:23.415Z,67.10
2019-02-16T03:08:27.279Z,67.50
2019-02-16T03:10:30.951Z,67.70
2019-02-16T03:12:34.646Z,67.40
2019-02-16T03:14:38.303Z,67.00
2019-02-16T03:16:41.986Z,66.90
2019-02-16T03:18:45.650Z,66.80
2019-02-16T03:20:49.359Z,67.30
2019-02-16T03:23:18.082Z,67.40
2019-02-16T03:25:21.763Z,67.30
2019-02-16T03:27:34.403Z,67.30
2019-02-16T03:29:49.468Z,68.80
2019-02-16T03:32:04.773Z,68.20
2019-02-16T03:34:17.478Z,68.00
2019-02-16T03:36:43.202Z,67.30
2019-02-16T03:38:58.388Z,67.40
2019-02-16T03:41:02.130Z,67.40
2019-02-16T03:43:05.812Z,67.60
2019-02-16T03:45:09.473Z,67.30
2019-02-16T03:47:13.154Z,67.40
2019-02-16T03:49:16.814Z,67.30
2019-02-16T03:51:20.490Z,67.10
2019-02-16T03:53:24.169Z,67.20
2019-02-16T03:55:27.854Z,67.10
2019-02-16T03:57:31.547Z,67.00
2019-02-16T03:59:35.332Z,67.00
2019-02-16T04:01:38.999Z,66.40
2019-02-16T04:03:42.696Z,66.30
2019-02-16T04:05:49.094Z,66.90
2019-02-16T04:07:53.102Z,66.20
2019-02-16T04:09:56.812Z,66.20
2019-02-16T04:12:02.042Z,66.60
2019-02-16T04:14:05.735Z,67.50
2019-02-16T04:16:09.404Z,68.00
2019-02-16T04:18:13.087Z,68.20
2019-02-16T04:20:16.752Z,67.80
2019-02-16T04:22:24.736Z,67.00
2019-02-16T04:24:25.966Z,66.90
2019-02-16T04:26:29.660Z,67.10
2019-02-16T04:28:33.342Z,66.60
2019-02-16T04:30:37.017Z,66.60
2019-02-16T04:32:40.699Z,66.40
2019-02-16T04:34:44.395Z,66.40
2019-02-16T04:36:48.063Z,66.20
2019-02-16T04:38:51.766Z,66.10
2019-02-16T04:40:55.456Z,66.10
2019-02-16T04:42:59.152Z,66.40
2019-02-16T04:45:02.954Z,66.50
2019-02-16T04:47:06.628Z,66.40
2019-02-16T04:49:10.633Z,66.30
2019-02-16T04:51:14.336Z,67.30
2019-02-16T04:53:17.994Z,67.00
2019-02-16T04:55:21.686Z,67.90
2019-02-16T04:57:25.353Z,68.30
2019-02-16T04:59:29.045Z,68.30
2019-02-16T05:01:32.731Z,68.00
2019-02-16T05:03:36.395Z,67.40
2019-02-16T05:05:40.086Z,67.20
2019-02-16T05:07:43.870Z,67.00
2019-02-16T05:09:47.536Z,66.70
2019-02-16T05:11:51.224Z,66.40
2019-02-16T05:13:54.883Z,66.40
2019-02-16T05:15:58.583Z,65.90
2019-02-16T05:18:02.245Z,66.10
2019-02-16T05:20:06.903Z,66.40
2019-02-16T05:22:10.626Z,66.20
2019-02-16T05:24:14.293Z,66.50
2019-02-16T05:26:18.030Z,66.40
2019-02-16T05:28:21.675Z,66.40
2019-02-16T05:30:25.438Z,66.80
2019-02-16T05:32:29.119Z,67.20
2019-02-16T05:34:32.989Z,67.10
2019-02-16T05:36:36.672Z,66.70
2019-02-16T05:38:40.492Z,66.80
2019-02-16T05:40:44.164Z,66.50
2019-02-16T05:42:48.157Z,66.30
2019-02-16T05:44:51.889Z,66.70
2019-02-16T05:46:55.585Z,66.50
2019-02-16T05:48:59.270Z,67.10
2019-02-16T05:51:02.956Z,67.90
2019-02-16T05:53:06.671Z,67.80
2019-02-16T05:55:10.395Z,67.40
2019-02-16T05:57:14.127Z,66.70
2019-02-16T05:59:17.794Z,67.10
2019-02-16T06:01:21.513Z,67.30
2019-02-16T06:03:25.165Z,65.60
2019-02-16T06:05:30.412Z,67.10
2019-02-16T06:07:34.102Z,67.10
2019-02-16T06:09:37.756Z,66.40
2019-02-16T06:11:41.427Z,66.40
2019-02-16T06:13:45.114Z,65.60
2019-02-16T06:15:48.798Z,66.10
2019-02-16T06:17:52.485Z,66.30
2019-02-16T06:19:56.135Z,66.20
2019-02-16T06:21:59.994Z,65.60
2019-02-16T06:24:03.660Z,66.20
2019-02-16T06:26:07.331Z,65.70
2019-02-16T06:28:11.029Z,65.20
2019-02-16T06:30:14.684Z,65.20
2019-02-16T06:32:18.395Z,65.10
2019-02-16T06:34:22.062Z,65.90
2019-02-16T06:36:27.307Z,65.60
2019-02-16T06:38:30.995Z,65.50
2019-02-16T06:40:34.683Z,65.50
2019-02-16T06:42:38.447Z,65.50
2019-02-16T06:44:42.114Z,66.20
2019-02-16T06:46:45.767Z,66.50
2019-02-16T06:48:49.453Z,66.50
2019-02-16T06:50:53.315Z,66.30
2019-02-16T06:52:57.013Z,66.20
2019-02-16T06:55:00.998Z,66.30
2019-02-16T06:57:06.308Z,66.00
2019-02-16T06:59:09.982Z,65.60
2019-02-16T07:01:13.652Z,65.50
2019-02-16T07:03:17.332Z,65.60
2019-02-16T07:05:21.003Z,66.30
2019-02-16T07:07:24.777Z,66.20
2019-02-16T07:09:28.467Z,66.10
2019-02-16T07:11:32.138Z,66.10
2019-02-16T07:13:35.826Z,65.90
2019-02-16T07:15:39.554Z,66.00
2019-02-16T07:17:44.837Z,66.00
2019-02-16T07:19:50.337Z,66.90
2019-02-16T07:21:54.000Z,67.00
2019-02-16T07:23:57.703Z,66.70
2019-02-16T07:26:01.366Z,66.60
2019-02-16T07:28:05.036Z,66.90
2019-02-16T07:30:11.346Z,66.50
2019-02-16T07:32:14.998Z,66.20
2019-02-16T07:34:18.694Z,67.00
2019-02-16T07:36:22.365Z,66.70
2019-02-16T07:38:26.019Z,67.50
2019-02-16T07:40:29.726Z,67.20
2019-02-16T07:42:52.435Z,67.40
2019-02-16T07:44:57.706Z,66.90
2019-02-16T07:47:15.029Z,66.90
2019-02-16T07:49:23.306Z,66.60
2019-02-16T07:51:32.388Z,66.70
2019-02-16T07:53:49.987Z,66.60
2019-02-16T07:55:58.135Z,66.70
2019-02-16T07:58:08.854Z,67.30
2019-02-16T08:00:14.106Z,68.50
2019-02-16T08:02:19.359Z,68.60
2019-02-16T08:04:40.699Z,70.10
2019-02-16T08:07:01.030Z,70.70
2019-02-16T08:09:06.958Z,69.90
2019-02-16T08:11:23.943Z,69.20
2019-02-16T08:13:31.683Z,69.70
2019-02-16T08:15:53.217Z,70.20
2019-02-16T08:18:01.183Z,69.70
2019-02-16T08:20:22.068Z,69.50
2019-02-16T08:22:36.240Z,70.00
2019-02-16T08:24:44.231Z,70.30
2019-02-16T08:26:58.439Z,70.20
2019-02-16T08:29:12.247Z,70.10
2019-02-16T08:31:17.535Z,70.60
2019-02-16T08:33:22.770Z,70.10
2019-02-16T08:35:34.180Z,69.80
2019-02-16T08:37:44.897Z,69.60
2019-02-16T08:39:52.839Z,69.60
2019-02-16T08:42:00.523Z,69.70
2019-02-16T08:44:23.999Z,69.90
2019-02-16T08:46:37.969Z,70.20
2019-02-16T08:48:52.216Z,70.60
2019-02-16T08:50:57.437Z,70.90
2019-02-16T08:53:05.592Z,71.80
2019-02-16T08:55:23.022Z,71.60
2019-02-16T08:57:28.525Z,71.60
2019-02-16T08:59:36.256Z,71.70
2019-02-16T09:01:50.309Z,72.30
2019-02-16T09:03:55.562Z,72.50
2019-02-16T09:06:06.755Z,73.20
2019-02-16T09:08:12.019Z,73.10
2019-02-16T09:10:19.678Z,72.90
2019-02-16T09:12:33.923Z,72.90
2019-02-16T09:14:51.095Z,72.70
2019-02-16T09:16:56.334Z,72.60
2019-02-16T09:19:07.458Z,72.70
2019-02-16T09:21:18.267Z,72.90
2019-02-16T09:23:26.146Z,72.70
2019-02-16T09:25:37.345Z,72.90
2019-02-16T09:27:45.302Z,73.90
2019-02-16T09:29:53.625Z,73.90
2019-02-16T09:32:04.865Z,73.30
2019-02-16T09:34:21.919Z,73.20
2019-02-16T09:36:39.170Z,73.30
2019-02-16T09:38:50.270Z,73.30
2019-02-16T09:41:04.141Z,73.10
2019-02-16T09:43:24.287Z,73.90
2019-02-16T09:45:35.501Z,73.80
2019-02-16T09:47:49.618Z,73.30
2019-02-16T09:49:54.914Z,73.80
2019-02-16T09:52:00.134Z,73.40
2019-02-16T09:54:21.341Z,73.50
2019-02-16T09:56:26.596Z,73.90
2019-02-16T09:58:47.892Z,74.20
2019-02-16T10:01:08.111Z,73.60
2019-02-16T10:03:13.358Z,74.00
2019-02-16T10:05:34.962Z,74.80
2019-02-16T10:07:55.432Z,75.50
2019-02-16T10:10:00.851Z,75.00
2019-02-16T10:12:11.762Z,75.00
2019-02-16T10:14:17.000Z,74.40
2019-02-16T10:16:25.107Z,73.80
2019-02-16T10:18:42.209Z,74.20
2019-02-16T10:20:47.473Z,74.00
2019-02-16T10:23:08.783Z,73.60
2019-02-16T10:25:16.508Z,74.10
2019-02-16T10:27:24.329Z,74.70
2019-02-16T10:29:35.512Z,75.00
2019-02-16T10:31:43.949Z,74.60
2019-02-16T10:33:49.222Z,74.50
2019-02-16T10:36:03.194Z,74.80
2019-02-16T10:38:23.496Z,74.60
2019-02-16T10:40:43.680Z,74.70
2019-02-16T10:42:57.970Z,75.40
2019-02-16T10:45:05.631Z,74.50
2019-02-16T10:47:10.911Z,75.10
2019-02-16T10:49:25.453Z,75.20
2019-02-16T10:51:42.179Z,74.80
2019-02-16T10:53:50.039Z,76.30
2019-02-16T10:55:55.319Z,76.20
2019-02-16T10:58:06.335Z,75.10
2019-02-16T11:00:27.766Z,75.80
2019-02-16T11:02:33.127Z,74.30
2019-02-16T11:04:40.947Z,74.80
2019-02-16T11:06:57.899Z,75.60
2019-02-16T11:09:06.038Z,75.70
2019-02-16T11:11:29.378Z,75.10
2019-02-16T11:13:49.621Z,74.00
2019-02-16T11:15:57.723Z,73.60
2019-02-16T11:18:14.634Z,74.70
2019-02-16T11:20:25.895Z,73.70
2019-02-16T11:22:37.029Z,73.00
2019-02-16T11:24:57.430Z,73.00
2019-02-16T11:27:02.652Z,73.40
2019-02-16T11:29:14.169Z,74.40
2019-02-16T11:31:28.299Z,74.20
2019-02-16T11:33:33.538Z,76.00
2019-02-16T11:35:44.718Z,74.00
2019-02-16T11:37:49.966Z,73.80
2019-02-16T11:40:00.874Z,73.90
2019-02-16T11:42:06.251Z,73.40
2019-02-16T11:44:11.535Z,73.80
2019-02-16T11:46:19.351Z,73.50
2019-02-16T11:48:24.654Z,73.50
2019-02-16T11:50:39.087Z,72.60
2019-02-16T11:52:47.042Z,73.30
2019-02-16T11:55:04.268Z,73.20
2019-02-16T11:57:24.274Z,72.80
2019-02-16T11:59:29.520Z,72.70
2019-02-16T12:01:34.798Z,72.60
2019-02-16T12:03:51.988Z,72.30
2019-02-16T12:05:57.270Z,72.20
2019-02-16T12:08:05.346Z,72.40
2019-02-16T12:10:10.687Z,73.50
2019-02-16T12:12:18.477Z,72.90
2019-02-16T12:14:35.813Z,72.20
2019-02-16T12:16:46.697Z,71.70
2019-02-16T12:19:09.898Z,72.40
2019-02-16T12:21:21.114Z,71.90
2019-02-16T12:23:31.959Z,72.00
2019-02-16T12:25:49.028Z,72.50
2019-02-16T12:27:59.896Z,72.00
2019-02-16T12:30:22.104Z,72.10
2019-02-16T12:32:33.424Z,71.60
2019-02-16T12:34:44.273Z,71.40
2019-02-16T12:36:52.050Z,71.20
2019-02-16T12:39:04.809Z,70.40
2019-02-16T12:41:07.407Z,71.20
2019-02-16T12:43:15.407Z,70.80
2019-02-16T12:45:35.642Z,71.60
2019-02-16T12:47:40.913Z,71.70
2019-02-16T12:49:54.834Z,72.00
2019-02-16T12:52:03.387Z,71.80
2019-02-16T12:54:23.731Z,73.50
2019-02-16T12:56:37.753Z,72.30
2019-02-16T12:58:46.012Z,72.30
2019-02-16T13:00:51.260Z,73.30
2019-02-16T13:03:02.194Z,73.20
2019-02-16T13:05:13.965Z,72.20
2019-02-16T13:07:22.027Z,72.80
2019-02-16T13:09:36.345Z,71.50
2019-02-16T13:11:41.633Z,71.30
2019-02-16T13:13:55.672Z,71.60
2019-02-16T13:16:03.627Z,71.30
2019-02-16T13:18:08.906Z,71.30
2019-02-16T13:20:29.052Z,71.90
2019-02-16T13:22:34.287Z,71.70
2019-02-16T13:24:51.702Z,71.20
2019-02-16T13:27:13.405Z,70.60
2019-02-16T13:29:18.658Z,70.30
2019-02-16T13:31:32.564Z,70.10
2019-02-16T13:33:37.842Z,70.30
2019-02-16T13:35:59.179Z,70.20
2019-02-16T13:38:16.475Z,69.80
2019-02-16T13:40:21.710Z,69.40
2019-02-16T13:42:26.943Z,68.90
2019-02-16T13:44:38.212Z,69.10
2019-02-16T13:46:46.467Z,68.00
2019-02-16T13:48:54.582Z,68.50
2019-02-16T13:51:17.783Z,68.10
2019-02-16T13:53:37.904Z,68.40
2019-02-16T13:55:46.010Z,69.20
2019-02-16T13:57:51.246Z,68.90
2019-02-16T14:00:11.562Z,69.00
2019-02-16T14:02:16.910Z,68.50
2019-02-16T14:04:22.170Z,69.20
2019-02-16T14:06:33.416Z,69.20
2019-02-16T14:08:41.149Z,69.00
2019-02-16T14:11:03.633Z,69.30
2019-02-16T14:13:08.875Z,69.50
2019-02-16T14:15:14.137Z,69.70
2019-02-16T14:17:19.358Z,69.70
2019-02-16T14:19:23.265Z,69.00
2019-02-16T14:21:26.958Z,69.00
2019-02-16T14:23:30.621Z,69.30
2019-02-16T14:25:44.842Z,69.10
2019-02-16T14:27:47.121Z,69.00
2019-02-16T14:29:51.623Z,68.80
2019-02-16T14:31:55.618Z,68.60
2019-02-16T14:34:00.002Z,68.50
2019-02-16T14:36:03.711Z,68.50
2019-02-16T14:38:08.951Z,68.10
2019-02-16T14:40:12.757Z,68.40
2019-02-16T14:42:16.416Z,68.10
2019-02-16T14:44:20.102Z,68.00
2019-02-16T14:46:23.873Z,68.10
2019-02-16T14:48:27.531Z,68.10
2019-02-16T14:50:31.193Z,68.20
2019-02-16T14:52:34.918Z,68.10
2019-02-16T14:54:38.564Z,68.10
2019-02-16T14:56:42.248Z,68.10
2019-02-16T14:58:46.014Z,68.20
2019-02-16T15:00:49.769Z,68.40
2019-02-16T15:02:53.492Z,68.30
2019-02-16T15:04:57.170Z,68.40
2019-02-16T15:07:00.882Z,68.70
2019-02-16T15:09:06.204Z,68.30
2019-02-16T15:11:09.897Z,68.20
2019-02-16T15:13:13.679Z,68.30
2019-02-16T15:15:17.349Z,68.30
2019-02-16T15:17:21.018Z,68.40
2019-02-16T15:19:25.799Z,68.40
2019-02-16T15:21:30.426Z,68.60
2019-02-16T15:23:34.140Z,68.20
2019-02-16T15:25:37.810Z,68.30
2019-02-16T15:27:41.560Z,68.40
2019-02-16T15:29:45.215Z,67.80
2019-02-16T15:31:48.935Z,67.70
2019-02-16T15:33:52.643Z,67.90
2019-02-16T15:35:56.305Z,68.30
2019-02-16T15:38:00.147Z,68.10
2019-02-16T15:40:04.166Z,68.00
2019-02-16T15:42:08.002Z,68.40
2019-02-16T15:44:11.675Z,68.40
2019-02-16T15:46:15.338Z,68.40
2019-02-16T15:48:19.024Z,68.30
2019-02-16T15:50:22.685Z,68.40
2019-02-16T15:52:26.375Z,68.00
2019-02-16T15:54:30.086Z,69.10
2019-02-16T15:56:33.770Z,69.40
2019-02-16T15:58:37.564Z,69.40
2019-02-16T16:00:41.225Z,69.40
2019-02-16T16:02:45.015Z,69.60
2019-02-16T16:04:48.675Z,69.40
2019-02-16T16:06:52.337Z,68.70
2019-02-16T16:09:03.450Z,69.60
2019-02-16T16:11:24.907Z,70.20
2019-02-16T16:13:46.321Z,70.00
2019-02-16T16:16:03.621Z,70.20
2019-02-16T16:18:14.558Z,70.30
2019-02-16T16:20:19.822Z,70.50
2019-02-16T16:22:34.152Z,70.50
2019-02-16T16:24:54.328Z,70.50
2019-02-16T16:27:02.354Z,70.60
2019-02-16T16:29:10.495Z,70.70
2019-02-16T16:31:24.662Z,70.60
2019-02-16T16:33:29.932Z,70.40
2019-02-16T16:35:35.206Z,70.30
2019-02-16T16:37:40.457Z,70.30
2019-02-16T16:39:57.608Z,70.10
2019-02-16T16:42:05.584Z,70.10
2019-02-16T16:44:10.876Z,70.40
2019-02-16T16:46:28.422Z,70.50
2019-02-16T16:48:47.793Z,70.50
2019-02-16T16:51:08.870Z,70.50
2019-02-16T16:53:14.125Z,70.40
2019-02-16T16:55:22.192Z,70.20
2019-02-16T16:57:27.421Z,71.20
2019-02-16T16:59:32.675Z,71.10
2019-02-16T17:01:40.726Z,71.10
2019-02-16T17:03:45.970Z,71.00
2019-02-16T17:05:51.244Z,71.10
2019-02-16T17:08:05.387Z,70.90
2019-02-16T17:10:13.636Z,70.70
2019-02-16T17:12:34.965Z,71.10
2019-02-16T17:14:40.387Z,71.00
2019-02-16T17:16:45.649Z,71.40
2019-02-16T17:18:53.725Z,72.00
2019-02-16T17:20:59.039Z,72.50
2019-02-16T17:23:19.198Z,72.00
2019-02-16T17:25:27.110Z,71.80
2019-02-16T17:27:32.462Z,71.60
2019-02-16T17:29:52.866Z,71.10
2019-02-16T17:32:03.809Z,71.20
2019-02-16T17:34:14.600Z,71.20
2019-02-16T17:36:19.872Z,71.10
2019-02-16T17:38:25.261Z,71.10
2019-02-16T17:40:30.502Z,71.50
2019-02-16T17:42:41.842Z,71.60
2019-02-16T17:45:03.216Z,71.50
2019-02-16T17:47:24.925Z,71.30
2019-02-16T17:49:30.171Z,71.50
2019-02-16T17:51:41.770Z,71.70
2019-02-16T17:53:47.262Z,71.50
2019-02-16T17:56:10.777Z,71.20
2019-02-16T17:58:16.038Z,71.00
2019-02-16T18:00:27.239Z,71.10
2019-02-16T18:02:35.113Z,71.30
2019-02-16T18:04:56.416Z,71.40
2019-02-16T18:07:04.588Z,73.30
2019-02-16T18:09:09.848Z,76.50
2019-02-16T18:11:20.930Z,75.80
2019-02-16T18:13:26.198Z,75.60
2019-02-16T18:15:40.138Z,75.50
2019-02-16T18:17:45.384Z,74.00
2019-02-16T18:19:50.648Z,73.50
2019-02-16T18:21:55.886Z,73.10
2019-02-16T18:24:07.253Z,72.70
2019-02-16T18:26:21.086Z,72.60
2019-02-16T18:28:29.073Z,74.00
2019-02-16T18:30:34.307Z,74.30
2019-02-16T18:32:45.440Z,74.00
2019-02-16T18:34:53.586Z,73.60
2019-02-16T18:37:04.845Z,73.20
2019-02-16T18:39:16.077Z,73.40
2019-02-16T18:41:21.328Z,74.10
2019-02-16T18:43:32.345Z,73.60
2019-02-16T18:45:53.928Z,73.70
2019-02-16T18:48:11.289Z,73.80
2019-02-16T18:50:25.527Z,73.70
2019-02-16T18:52:36.655Z,73.30
2019-02-16T18:54:50.968Z,73.80
2019-02-16T18:57:12.298Z,73.60
2019-02-16T18:59:26.585Z,73.00
2019-02-16T19:01:44.065Z,73.10
2019-02-16T19:03:52.283Z,73.30
2019-02-16T19:05:57.607Z,73.20
2019-02-16T19:08:02.911Z,73.10
2019-02-16T19:10:20.575Z,72.90
2019-02-16T19:12:28.538Z,73.20
2019-02-16T19:14:33.780Z,72.80
2019-02-16T19:16:54.015Z,72.80
2019-02-16T19:19:05.139Z,72.70
2019-02-16T19:21:16.194Z,72.40
2019-02-16T19:23:21.440Z,73.00
2019-02-16T19:25:32.446Z,73.00
2019-02-16T19:27:43.373Z,73.40
2019-02-16T19:29:48.605Z,72.40
2019-02-16T19:31:59.459Z,72.80
2019-02-16T19:34:21.061Z,73.00
2019-02-16T19:36:26.342Z,73.30
2019-02-16T19:38:34.363Z,73.20
2019-02-16T19:40:39.590Z,73.10
2019-02-16T19:42:59.890Z,72.60
2019-02-16T19:45:17.507Z,72.50
2019-02-16T19:47:40.859Z,72.30
2019-02-16T19:49:58.084Z,72.30
2019-02-16T19:52:06.022Z,71.80
2019-02-16T19:54:16.962Z,72.10
2019-02-16T19:56:24.690Z,72.10
2019-02-16T19:58:36.003Z,71.90
2019-02-16T20:00:41.322Z,72.00
2019-02-16T20:02:46.603Z,72.10
2019-02-16T20:05:07.009Z,72.70
2019-02-16T20:07:28.503Z,73.10
2019-02-16T20:09:34.019Z,72.90
2019-02-16T20:11:51.355Z,72.60
2019-02-16T20:13:59.070Z,72.70
2019-02-16T20:16:10.199Z,72.50
2019-02-16T20:18:21.460Z,72.40
2019-02-16T20:20:26.722Z,72.00
2019-02-16T20:22:46.878Z,71.90
2019-02-16T20:24:52.157Z,72.70
2019-02-16T20:27:03.301Z,71.90
2019-02-16T20:29:14.375Z,72.20
2019-02-16T20:31:25.441Z,71.80
2019-02-16T20:33:36.432Z,72.00
2019-02-16T20:35:41.763Z,71.90
2019-02-16T20:38:03.413Z,71.80
2019-02-16T20:40:21.178Z,71.70
2019-02-16T20:42:26.461Z,71.80
2019-02-16T20:44:40.548Z,71.90
2019-02-16T20:46:48.239Z,71.90
2019-02-16T20:49:11.418Z,72.10
2019-02-16T20:51:22.558Z,72.30
2019-02-16T20:53:39.914Z,71.80
2019-02-16T20:55:51.046Z,72.00
2019-02-16T20:57:56.295Z,72.00
2019-02-16T21:00:01.631Z,71.90
2019-02-16T21:02:18.791Z,71.80
2019-02-16T21:04:36.534Z,71.70
2019-02-16T21:06:53.977Z,71.90
2019-02-16T21:09:05.139Z,72.60
2019-02-16T21:11:10.524Z,72.90
2019-02-16T21:13:18.779Z,72.60
2019-02-16T21:15:29.532Z,72.70
2019-02-16T21:17:34.788Z,72.90
2019-02-16T21:19:51.858Z,72.50
2019-02-16T21:22:09.067Z,72.60
2019-02-16T21:24:14.306Z,72.10
2019-02-16T21:26:22.065Z,73.10
2019-02-16T21:28:27.303Z,72.50
2019-02-16T21:30:32.552Z,72.60
2019-02-16T21:32:49.836Z,72.50
2019-02-16T21:34:55.081Z,72.20
2019-02-16T21:37:00.351Z,71.90
2019-02-16T21:39:06.674Z,71.60
2019-02-16T21:41:11.901Z,71.70
2019-02-16T21:43:35.506Z,71.70
2019-02-16T21:45:40.782Z,71.50
2019-02-16T21:48:04.003Z,71.40
2019-02-16T21:50:16.475Z,71.60
2019-02-16T21:52:36.492Z,71.10
2019-02-16T21:54:58.108Z,71.40
2019-02-16T21:57:03.331Z,71.40
2019-02-16T21:59:23.787Z,72.20
2019-02-16T22:01:37.970Z,71.90
2019-02-16T22:03:48.926Z,71.50
2019-02-16T22:05:57.028Z,71.20
2019-02-16T22:08:05.190Z,71.40
2019-02-16T22:10:10.950Z,71.60
2019-02-16T22:12:16.184Z,71.60
2019-02-16T22:14:19.948Z,71.10
2019-02-16T22:16:23.595Z,70.90
2019-02-16T22:18:27.325Z,71.30
2019-02-16T22:20:31.052Z,70.50
2019-02-16T22:22:34.719Z,70.90
2019-02-16T22:24:38.389Z,71.00
2019-02-16T22:26:42.065Z,70.50
2019-02-16T22:28:45.806Z,70.50
2019-02-16T22:30:49.478Z,70.60
2019-02-16T22:32:53.146Z,70.50
2019-02-16T22:34:56.843Z,70.50
2019-02-16T22:37:00.515Z,70.50
2019-02-16T22:39:04.924Z,70.40
2019-02-16T22:41:08.594Z,70.30
2019-02-16T22:43:12.248Z,70.50
2019-02-16T22:45:16.001Z,70.00
2019-02-16T22:47:19.669Z,70.20
2019-02-16T22:49:23.353Z,70.50
2019-02-16T22:51:27.026Z,70.40
2019-02-16T22:53:30.786Z,70.00
2019-02-16T22:55:34.487Z,70.30
2019-02-16T22:57:38.263Z,70.20
2019-02-16T22:59:41.998Z,69.90
2019-02-16T23:01:45.677Z,70.20
2019-02-16T23:03:49.355Z,70.20
2019-02-16T23:05:53.142Z,70.20
2019-02-16T23:07:56.838Z,70.50
2019-02-16T23:10:00.850Z,70.20
2019-02-16T23:12:06.003Z,69.70
2019-02-16T23:14:09.708Z,69.70
2019-02-16T23:16:13.398Z,70.30
2019-02-16T23:18:17.170Z,70.40
2019-02-16T23:20:20.850Z,70.50
2019-02-16T23:22:24.538Z,70.60
2019-02-16T23:24:28.276Z,70.40
2019-02-16T23:26:31.973Z,70.00
2019-02-16T23:28:38.813Z,70.00
2019-02-16T23:30:41.291Z,70.00
2019-02-16T23:32:44.945Z,69.40
2019-02-16T23:34:48.623Z,70.00
2019-02-16T23:36:52.430Z,69.90
2019-02-16T23:38:56.093Z,70.20
2019-02-16T23:40:59.802Z,69.90
2019-02-16T23:43:03.466Z,70.00
2019-02-16T23:45:09.128Z,70.00
2019-02-16T23:47:12.804Z,69.60
2019-02-16T23:49:16.786Z,69.10
2019-02-16T23:51:20.478Z,69.20
2019-02-16T23:53:24.139Z,69.80
2019-02-16T23:55:27.918Z,69.60
2019-02-16T23:57:31.609Z,69.70
2019-02-16T23:59:35.283Z,69.80
